createdAt,value
2023-12-21T08:46:31.374Z,2456.00
2023-12-21T08:47:31.270Z,2466.00
2023-12-21T08:48:31.314Z,2405.00
2023-12-21T08:49:31.383Z,2101.00
2023-12-21T08:50:31.369Z,1418.00
2023-12-21T08:51:31.432Z,1228.00
2023-12-21T08:52:31.303Z,1454.00
2023-12-21T08:53:31.309Z,1628.00
2023-12-21T08:54:31.310Z,1682.00
2023-12-21T08:55:31.291Z,1702.00
2023-12-21T08:56:31.311Z,1799.00
2023-12-21T08:57:31.271Z,1871.00
2023-12-21T08:58:31.390Z,1927.00
2023-12-21T08:59:31.282Z,1980.00
2023-12-21T09:00:31.303Z,2015.00
2023-12-21T09:01:31.411Z,2044.00
2023-12-21T09:02:31.313Z,2126.00
2023-12-21T09:03:31.339Z,2146.00
2023-12-21T09:04:31.334Z,2167.00
2023-12-21T09:05:31.339Z,2192.00
2023-12-21T09:06:31.317Z,2222.00
2023-12-21T09:07:31.489Z,2245.00
2023-12-21T09:08:31.467Z,2271.00
2023-12-21T09:09:31.411Z,2321.00
2023-12-21T09:10:31.503Z,2365.00
2023-12-21T09:11:31.582Z,2381.00
2023-12-21T09:12:31.617Z,2406.00
2023-12-21T09:13:31.657Z,2442.00
2023-12-21T09:14:31.703Z,2464.00
2023-12-21T09:15:31.734Z,2483.00
2023-12-21T09:16:31.854Z,2514.00
2023-12-21T09:17:31.882Z,2568.00
2023-12-21T09:18:31.899Z,2600.00
2023-12-21T09:19:31.971Z,2628.00
2023-12-21T09:20:31.944Z,2663.00
2023-12-21T09:21:31.972Z,2724.00
2023-12-21T09:22:32.020Z,2751.00
2023-12-21T09:23:32.036Z,2800.00
2023-12-21T09:24:32.202Z,2876.00
2023-12-21T09:25:32.126Z,2901.00
2023-12-21T09:26:32.212Z,2917.00
2023-12-21T09:27:32.199Z,2947.00
2023-12-21T09:28:32.268Z,2999.00
2023-12-21T09:29:32.255Z,3019.00
2023-12-21T09:30:32.384Z,3020.00
2023-12-21T09:31:32.427Z,3034.00
2023-12-21T09:32:32.516Z,3069.00
2023-12-21T09:33:32.463Z,3099.00
2023-12-21T09:34:32.558Z,3178.00
2023-12-21T09:35:32.461Z,3196.00
2023-12-21T09:36:32.524Z,3208.00
2023-12-21T09:37:32.558Z,3230.00
2023-12-21T09:38:32.582Z,3279.00
2023-12-21T09:39:32.544Z,3347.00
2023-12-21T09:40:32.641Z,3359.00
2023-12-21T09:41:32.959Z,3363.00
2023-12-21T09:42:32.642Z,3361.00
2023-12-21T09:43:32.790Z,3357.00
2023-12-21T09:44:32.737Z,2911.00
2023-12-21T09:45:32.806Z,3153.00
2023-12-21T09:46:33.216Z,3059.00
2023-12-21T09:47:32.929Z,3015.00
2023-12-21T09:48:33.011Z,2975.00
2023-12-21T09:49:33.030Z,2836.00
2023-12-21T09:50:33.069Z,2840.00
2023-12-21T09:51:33.207Z,2850.00
2023-12-21T09:52:33.306Z,2852.00
2023-12-21T09:53:33.387Z,2851.00
2023-12-21T09:54:33.320Z,2828.00
2023-12-21T09:55:33.457Z,2779.00
2023-12-21T09:56:33.338Z,2763.00
2023-12-21T09:57:33.443Z,2759.00
2023-12-21T09:58:33.433Z,2749.00
2023-12-21T09:59:33.459Z,2739.00
2023-12-21T10:00:33.622Z,2722.00
2023-12-21T10:01:33.657Z,2619.00
2023-12-21T10:02:33.949Z,2595.00
2023-12-21T10:03:33.768Z,2561.00
2023-12-21T10:04:33.821Z,2503.00
2023-12-21T10:05:33.924Z,2467.00
2023-12-21T10:06:33.920Z,2354.00
2023-12-21T10:07:33.967Z,2344.00
2023-12-21T10:08:33.973Z,2223.00
2023-12-21T10:09:34.043Z,1888.00
2023-12-21T10:10:34.149Z,1979.00
2023-12-21T10:11:34.190Z,1779.00
2023-12-21T10:12:34.202Z,1758.00
2023-12-21T10:13:34.269Z,1850.00
2023-12-21T10:14:34.209Z,1838.00
2023-12-21T10:15:34.392Z,1879.00
2023-12-21T10:16:34.329Z,1942.00
2023-12-21T10:17:34.429Z,1941.00
2023-12-21T10:18:34.422Z,1940.00
2023-12-21T10:19:34.395Z,1936.00
2023-12-21T10:20:34.349Z,1925.00
2023-12-21T10:21:34.327Z,1915.00
2023-12-21T10:22:34.362Z,1906.00
2023-12-21T10:23:34.373Z,1899.00
2023-12-21T10:24:34.425Z,1894.00
2023-12-21T10:25:34.389Z,1893.00
2023-12-21T10:26:34.391Z,1887.00
2023-12-21T10:27:34.413Z,1884.00
2023-12-21T10:28:34.553Z,1880.00
2023-12-21T10:29:34.438Z,1878.00
2023-12-21T10:30:34.441Z,1877.00
2023-12-21T10:31:34.563Z,1875.00
2023-12-21T10:32:34.523Z,1878.00
2023-12-21T10:33:34.583Z,1876.00
2023-12-21T10:34:34.625Z,1875.00
2023-12-21T10:35:34.549Z,1874.00
2023-12-21T10:36:34.530Z,1875.00
2023-12-21T10:37:34.999Z,1873.00
2023-12-21T10:38:34.536Z,1870.00
2023-12-21T10:39:34.553Z,1863.00
2023-12-21T10:40:34.693Z,1861.00
2023-12-21T10:41:34.684Z,1857.00
2023-12-21T10:42:34.670Z,1856.00
2023-12-21T10:43:34.698Z,1858.00
2023-12-21T10:44:34.704Z,1857.00
2023-12-21T10:45:35.693Z,1856.00
2023-12-21T10:46:34.975Z,1857.00
2023-12-21T10:47:35.076Z,1855.00
2023-12-21T10:48:34.884Z,1851.00
2023-12-21T10:49:35.043Z,1847.00
2023-12-21T10:50:34.911Z,1843.00
2023-12-21T10:51:34.796Z,1904.00
2023-12-21T10:52:34.792Z,1978.00
2023-12-21T10:53:34.894Z,2079.00
2023-12-21T10:54:34.873Z,2117.00
2023-12-21T10:55:35.056Z,2133.00
2023-12-21T10:56:35.079Z,2162.00
2023-12-21T10:57:35.092Z,2176.00
2023-12-21T10:58:35.190Z,2177.00
2023-12-21T10:59:35.260Z,1624.00
2023-12-21T11:00:35.480Z,1647.00
2023-12-21T11:01:35.286Z,1367.00
2023-12-21T11:02:35.265Z,1383.00
2023-12-21T11:03:35.336Z,1353.00
2023-12-21T11:04:35.412Z,1269.00
2023-12-21T11:05:35.520Z,1197.00
2023-12-21T11:06:35.469Z,1189.00
2023-12-21T11:07:36.047Z,1172.00
2023-12-21T11:08:35.580Z,1182.00
2023-12-21T11:10:19.407Z,1168.00
2023-12-21T11:11:19.320Z,1153.00
2023-12-21T11:12:19.434Z,1166.00
2023-12-21T11:13:19.366Z,1214.00
2023-12-21T11:14:19.365Z,1292.00
2023-12-21T11:15:19.301Z,1322.00
2023-12-21T11:16:19.331Z,1351.00
2023-12-21T11:17:19.318Z,1398.00
2023-12-21T11:18:19.346Z,1429.00
2023-12-21T11:19:19.423Z,1457.00
2023-12-21T11:20:19.347Z,1484.00
2023-12-21T11:21:19.342Z,1512.00
2023-12-21T11:22:19.408Z,1566.00
2023-12-21T11:23:19.329Z,1589.00
2023-12-21T11:24:19.322Z,1731.00
2023-12-21T11:25:19.362Z,1729.00
2023-12-21T11:26:19.312Z,1733.00
2023-12-21T11:27:19.351Z,1755.00
2023-12-21T11:28:19.404Z,1776.00
2023-12-21T11:29:19.346Z,1887.00
2023-12-21T11:30:19.411Z,1898.00
2023-12-21T11:31:19.456Z,1926.00
2023-12-21T11:32:19.553Z,1959.00
2023-12-21T11:33:19.621Z,2003.00
2023-12-21T11:34:19.675Z,2040.00
2023-12-21T11:35:19.608Z,2102.00
2023-12-21T11:36:19.644Z,2129.00
2023-12-21T11:37:19.966Z,2174.00
2023-12-21T11:38:19.769Z,2207.00
2023-12-21T11:39:19.794Z,2259.00
2023-12-21T11:40:19.814Z,2388.00
2023-12-21T11:41:19.850Z,2411.00
2023-12-21T11:42:19.895Z,2422.00
2023-12-21T11:43:19.962Z,2429.00
2023-12-21T11:44:19.979Z,2426.00
2023-12-21T11:45:20.033Z,2415.00
2023-12-21T11:46:20.230Z,2346.00
2023-12-21T11:47:20.120Z,2311.00
2023-12-21T11:48:20.285Z,2284.00
2023-12-21T11:49:20.254Z,2259.00
2023-12-21T11:50:20.288Z,2245.00
2023-12-21T11:51:20.248Z,2238.00
2023-12-21T11:52:20.349Z,2230.00
2023-12-21T11:54:20.454Z,2213.00
2023-12-21T11:55:20.521Z,2197.00
2023-12-21T11:56:20.561Z,2185.00
2023-12-21T11:57:20.591Z,2172.00
2023-12-21T11:58:21.295Z,2159.00
2023-12-21T11:59:20.771Z,2147.00
2023-12-21T12:00:21.454Z,2140.00
2023-12-21T12:01:20.896Z,2132.00
2023-12-21T12:02:20.998Z,2120.00
2023-12-21T12:03:20.975Z,2114.00
2023-12-21T12:04:21.016Z,2111.00
2023-12-21T12:05:21.098Z,2104.00
2023-12-21T12:06:21.118Z,2100.00
2023-12-21T12:07:21.189Z,2098.00
2023-12-21T12:08:21.253Z,2090.00
2023-12-21T12:09:21.422Z,2084.00
2023-12-21T12:10:21.523Z,2078.00
2023-12-21T12:11:21.518Z,2072.00
2023-12-21T12:12:21.616Z,2063.00
2023-12-21T12:13:21.745Z,2060.00
2023-12-21T12:14:21.767Z,2056.00
2023-12-21T12:15:21.817Z,2047.00
2023-12-21T12:16:21.914Z,2043.00
2023-12-21T12:17:22.107Z,2044.00
2023-12-21T12:18:22.051Z,2042.00
2023-12-21T12:19:22.203Z,2042.00
2023-12-21T12:20:22.176Z,2038.00
2023-12-21T12:21:22.228Z,2034.00
2023-12-21T12:22:22.324Z,2030.00
2023-12-21T12:23:22.340Z,2029.00
2023-12-21T12:24:22.412Z,2028.00
2023-12-21T12:25:22.525Z,2028.00
2023-12-21T12:26:22.529Z,2023.00
2023-12-21T12:27:22.580Z,2019.00
2023-12-21T12:28:22.751Z,2016.00
2023-12-21T12:29:22.714Z,2014.00
2023-12-21T12:30:22.801Z,2008.00
2023-12-21T12:31:22.826Z,2003.00
2023-12-21T12:32:22.902Z,2002.00
2023-12-21T12:33:23.116Z,1996.00
2023-12-21T12:34:23.111Z,1993.00
2023-12-21T12:35:23.076Z,1991.00
2023-12-21T12:36:23.102Z,1986.00
2023-12-21T12:37:23.181Z,1983.00
2023-12-21T12:38:23.187Z,1982.00
2023-12-21T12:39:23.292Z,1984.00
2023-12-21T12:40:23.345Z,1983.00
2023-12-21T12:41:23.348Z,1986.00
2023-12-21T12:42:23.392Z,1986.00
2023-12-21T12:43:23.500Z,1983.00
2023-12-21T12:44:25.671Z,1985.00
2023-12-21T12:45:23.541Z,1979.00
2023-12-21T12:46:23.606Z,1977.00
2023-12-21T12:47:24.187Z,1978.00
2023-12-21T12:48:23.761Z,1974.00
2023-12-21T12:49:23.941Z,1974.00
2023-12-21T12:50:23.801Z,1968.00
2023-12-21T12:51:23.894Z,1967.00
2023-12-21T12:52:23.886Z,1957.00
2023-12-21T12:53:23.869Z,1954.00
2023-12-21T12:54:23.874Z,1951.00
2023-12-21T12:55:23.891Z,1949.00
2023-12-21T12:56:23.928Z,1946.00
2023-12-21T12:57:23.971Z,1942.00
2023-12-21T12:58:24.022Z,1936.00
2023-12-21T12:59:24.047Z,1933.00
2023-12-21T13:00:24.067Z,1933.00
2023-12-21T13:01:26.262Z,1930.00
2023-12-21T13:02:24.126Z,1922.00
2023-12-21T13:03:24.149Z,1918.00
2023-12-21T13:04:24.166Z,1916.00
2023-12-21T13:05:24.171Z,1911.00
2023-12-21T13:06:24.218Z,1908.00
2023-12-21T13:07:25.665Z,1904.00
2023-12-21T13:08:24.115Z,1902.00
2023-12-21T13:09:24.116Z,1901.00
2023-12-21T13:10:24.216Z,1899.00
2023-12-21T13:11:24.177Z,1899.00
2023-12-21T13:12:24.142Z,1895.00
2023-12-21T13:13:24.191Z,1893.00
2023-12-21T13:14:24.099Z,1888.00
2023-12-21T13:15:24.140Z,1888.00
2023-12-21T13:16:24.175Z,1884.00
2023-12-21T13:17:24.133Z,1884.00
2023-12-21T13:18:24.117Z,1881.00
2023-12-21T13:19:25.881Z,1878.00
2023-12-21T13:20:24.273Z,1878.00
2023-12-21T13:21:24.086Z,1875.00
2023-12-21T13:22:24.216Z,1869.00
2023-12-21T13:23:24.206Z,1866.00
2023-12-21T13:24:24.269Z,1861.00
2023-12-21T13:25:26.106Z,1854.00
2023-12-21T13:26:24.336Z,1850.00
2023-12-21T13:27:24.311Z,1852.00
2023-12-21T13:28:24.372Z,1849.00
2023-12-21T13:29:24.355Z,1848.00
2023-12-21T13:30:24.466Z,1842.00
2023-12-21T13:31:24.363Z,1839.00
2023-12-21T13:32:24.477Z,1838.00
2023-12-21T13:33:24.386Z,1838.00
2023-12-21T13:34:24.432Z,1836.00
2023-12-21T13:35:24.385Z,1830.00
2023-12-21T13:36:24.412Z,1825.00
2023-12-21T13:37:24.424Z,1821.00
2023-12-21T13:38:24.436Z,1822.00
2023-12-21T13:39:24.423Z,1817.00
2023-12-21T13:40:24.491Z,1814.00
2023-12-21T13:41:24.453Z,1807.00
2023-12-21T13:42:24.509Z,1804.00
2023-12-21T13:43:24.490Z,1800.00
2023-12-21T13:44:29.305Z,1797.00
2023-12-21T13:45:25.493Z,1794.00
2023-12-21T13:46:24.484Z,1791.00
2023-12-21T13:47:24.481Z,1790.00
2023-12-21T13:48:24.564Z,1786.00
2023-12-21T13:49:24.575Z,1787.00
2023-12-21T13:50:24.512Z,1782.00
2023-12-21T13:51:24.477Z,1781.00
2023-12-21T13:52:24.558Z,1776.00
2023-12-21T13:53:24.460Z,1775.00
2023-12-21T13:54:24.519Z,1770.00
2023-12-21T13:55:24.541Z,1769.00
2023-12-21T13:56:24.500Z,1764.00
2023-12-21T13:57:24.485Z,1759.00
2023-12-21T13:58:24.515Z,1756.00
2023-12-21T13:59:24.506Z,1754.00
2023-12-21T14:00:24.471Z,1749.00
2023-12-21T14:01:24.561Z,1745.00
2023-12-21T14:02:24.604Z,1741.00
2023-12-21T14:03:24.497Z,1739.00
2023-12-21T14:04:24.568Z,1738.00
2023-12-21T14:05:24.538Z,1739.00
2023-12-21T14:06:24.530Z,1738.00
2023-12-21T14:07:24.529Z,1737.00
2023-12-21T14:08:24.508Z,1737.00
2023-12-21T14:09:24.476Z,1735.00
2023-12-21T14:10:24.511Z,1732.00
2023-12-21T14:11:24.505Z,1729.00
2023-12-21T14:12:24.494Z,1720.00
2023-12-21T14:13:24.515Z,1713.00
2023-12-21T14:14:24.476Z,1710.00
2023-12-21T14:15:24.513Z,1712.00
2023-12-21T14:16:24.579Z,1713.00
2023-12-21T14:17:24.511Z,1713.00
2023-12-21T14:18:24.566Z,1713.00
2023-12-21T14:19:24.543Z,1713.00
2023-12-21T14:20:24.513Z,1708.00
2023-12-21T14:21:24.519Z,1706.00
2023-12-21T14:22:24.550Z,1701.00
2023-12-21T14:23:24.511Z,1695.00
2023-12-21T14:24:24.494Z,1694.00
2023-12-21T14:25:24.535Z,1695.00
2023-12-21T14:26:24.522Z,1693.00
2023-12-21T14:27:24.489Z,1691.00
2023-12-21T14:28:25.200Z,1687.00
2023-12-21T14:29:24.586Z,1684.00
2023-12-21T14:30:24.487Z,1680.00
2023-12-21T14:31:24.582Z,1677.00
2023-12-21T14:32:24.616Z,1676.00
2023-12-21T14:33:24.526Z,1676.00
2023-12-21T14:34:24.594Z,1675.00
2023-12-21T14:35:24.510Z,1670.00
2023-12-21T14:36:24.515Z,1663.00
2023-12-21T14:37:25.034Z,1661.00
2023-12-21T14:38:24.534Z,1660.00
2023-12-21T14:39:24.563Z,1661.00
2023-12-21T14:40:24.621Z,1658.00
2023-12-21T14:41:24.608Z,1652.00
2023-12-21T14:42:24.738Z,1651.00
2023-12-21T14:43:24.641Z,1650.00
2023-12-21T14:44:24.642Z,1649.00
2023-12-21T14:45:24.676Z,1643.00
2023-12-21T14:46:24.693Z,1642.00
2023-12-21T14:47:25.065Z,1644.00
2023-12-21T14:48:26.021Z,1645.00
2023-12-21T14:49:24.795Z,1644.00
2023-12-21T14:50:24.805Z,1645.00
2023-12-21T14:51:24.774Z,1642.00
2023-12-21T14:52:25.084Z,1639.00
2023-12-21T14:53:24.777Z,1635.00
2023-12-21T14:54:24.825Z,1636.00
2023-12-21T14:55:24.860Z,1633.00
2023-12-21T14:56:24.824Z,1630.00
2023-12-21T14:57:24.869Z,1627.00
2023-12-21T14:58:24.912Z,1626.00
2023-12-21T14:59:24.934Z,1624.00
2023-12-21T15:00:24.913Z,1620.00
2023-12-21T15:01:25.028Z,1618.00
2023-12-21T15:02:25.012Z,1613.00
2023-12-21T15:03:24.994Z,1611.00
2023-12-21T15:04:25.035Z,1609.00
2023-12-21T15:05:25.056Z,1606.00
2023-12-21T15:06:25.047Z,1605.00
2023-12-21T15:07:25.071Z,1604.00
2023-12-21T15:08:25.092Z,1601.00
2023-12-21T15:09:25.108Z,1601.00
2023-12-21T15:10:25.153Z,1599.00
2023-12-21T15:11:25.160Z,1595.00
2023-12-21T15:12:25.558Z,1592.00
2023-12-21T15:13:25.258Z,1593.00
2023-12-21T15:14:25.189Z,1592.00
2023-12-21T15:15:25.246Z,1590.00
2023-12-21T15:16:25.349Z,1588.00
2023-12-21T15:17:25.299Z,1585.00
2023-12-21T15:18:25.413Z,1586.00
2023-12-21T15:19:25.452Z,1587.00
2023-12-21T15:20:25.423Z,1585.00
2023-12-21T15:21:25.387Z,1584.00
2023-12-21T15:22:25.423Z,1585.00
2023-12-21T15:23:25.507Z,1584.00
2023-12-21T15:24:25.446Z,1584.00
2023-12-21T15:25:25.551Z,1582.00
2023-12-21T15:26:25.484Z,1578.00
2023-12-21T15:27:25.495Z,1579.00
2023-12-21T15:28:25.553Z,1577.00
2023-12-21T15:29:25.544Z,1576.00
2023-12-21T15:30:25.597Z,1571.00
2023-12-21T15:31:25.660Z,1566.00
2023-12-21T15:32:25.717Z,1560.00
2023-12-21T15:33:26.543Z,1556.00
2023-12-21T15:34:25.765Z,1555.00
2023-12-21T15:35:25.732Z,1556.00
2023-12-21T15:36:25.702Z,1552.00
2023-12-21T15:37:25.736Z,1549.00
2023-12-21T15:38:25.742Z,1548.00
2023-12-21T15:39:25.772Z,1544.00
2023-12-21T15:40:26.175Z,1541.00
2023-12-21T15:41:25.844Z,1539.00
2023-12-21T15:42:25.870Z,1537.00
2023-12-21T15:43:26.123Z,1531.00
2023-12-21T15:44:25.872Z,1530.00
2023-12-21T15:45:25.919Z,1522.00
2023-12-21T15:46:25.966Z,1512.00
2023-12-21T15:47:26.006Z,1503.00
2023-12-21T15:48:26.271Z,1488.00
2023-12-21T15:49:26.082Z,1437.00
2023-12-21T15:50:26.056Z,1418.00
2023-12-21T15:51:26.074Z,1406.00
2023-12-21T15:52:26.120Z,1388.00
2023-12-21T15:53:26.125Z,1375.00
2023-12-21T15:54:26.137Z,1367.00
2023-12-21T15:55:26.186Z,1361.00
2023-12-21T15:56:26.184Z,1356.00
2023-12-21T15:57:26.238Z,1350.00
2023-12-21T15:58:26.273Z,1348.00
2023-12-21T15:59:26.281Z,1344.00
2023-12-21T16:00:26.308Z,1343.00
2023-12-21T16:01:26.388Z,1340.00
2023-12-21T16:02:26.331Z,1337.00
2023-12-21T16:03:26.425Z,1339.00
2023-12-21T16:04:26.484Z,1341.00
2023-12-21T16:05:26.499Z,1340.00
2023-12-21T16:06:26.511Z,1343.00
2023-12-21T16:07:26.515Z,1344.00
2023-12-21T16:08:26.570Z,1346.00
2023-12-21T16:09:26.612Z,1350.00
2023-12-21T16:10:26.656Z,1350.00
2023-12-21T16:11:26.636Z,1347.00
2023-12-21T16:12:26.680Z,1343.00
2023-12-21T16:13:26.743Z,1341.00
2023-12-21T16:14:26.695Z,1339.00
2023-12-21T16:15:29.197Z,1336.00
2023-12-21T16:16:27.103Z,1334.00
2023-12-21T16:17:27.029Z,1332.00
2023-12-21T16:18:27.052Z,1328.00
2023-12-21T16:19:27.069Z,1326.00
2023-12-21T16:20:27.032Z,1326.00
2023-12-21T16:21:27.056Z,1328.00
2023-12-21T16:22:27.137Z,1326.00
2023-12-21T16:23:27.100Z,1322.00
2023-12-21T16:24:27.144Z,1319.00
2023-12-21T16:25:27.209Z,1320.00
2023-12-21T16:26:27.204Z,1319.00
2023-12-21T16:27:27.225Z,1319.00
2023-12-21T16:28:27.564Z,1317.00
2023-12-21T16:29:27.246Z,1318.00
2023-12-21T16:30:27.272Z,1319.00
2023-12-21T16:31:27.379Z,1315.00
2023-12-21T16:32:27.366Z,1315.00
2023-12-21T16:33:27.432Z,1314.00
2023-12-21T16:34:27.495Z,1310.00
2023-12-21T16:35:27.396Z,1306.00
2023-12-21T16:36:27.433Z,1303.00
2023-12-21T16:37:27.487Z,1300.00
2023-12-21T16:38:27.469Z,1296.00
2023-12-21T16:39:27.520Z,1293.00
2023-12-21T16:40:27.556Z,1290.00
2023-12-21T16:41:27.526Z,1288.00
2023-12-21T16:42:27.576Z,1287.00
2023-12-21T16:43:27.648Z,1286.00
2023-12-21T16:44:27.588Z,1285.00
2023-12-21T16:45:30.560Z,1286.00
2023-12-21T16:46:27.641Z,1285.00
2023-12-21T16:47:27.628Z,1282.00
2023-12-21T16:48:27.694Z,1281.00
2023-12-21T16:49:27.670Z,1278.00
2023-12-21T16:50:27.677Z,1274.00
2023-12-21T16:51:27.663Z,1272.00
2023-12-21T16:52:27.804Z,1272.00
2023-12-21T16:53:28.145Z,1272.00
2023-12-21T16:54:27.744Z,1270.00
2023-12-21T16:55:27.701Z,1271.00
2023-12-21T16:56:27.641Z,1271.00
2023-12-21T16:57:27.650Z,1271.00
2023-12-21T16:58:27.663Z,1268.00
2023-12-21T16:59:27.698Z,1270.00
2023-12-21T17:00:27.656Z,1271.00
2023-12-21T17:01:27.741Z,1272.00
2023-12-21T17:02:27.624Z,1303.00
2023-12-21T17:03:28.143Z,1368.00
2023-12-21T17:04:27.760Z,1379.00
2023-12-21T17:05:27.895Z,1380.00
2023-12-21T17:06:27.679Z,1374.00
2023-12-21T17:07:27.739Z,1368.00
2023-12-21T17:08:27.689Z,1364.00
2023-12-21T17:09:27.668Z,1359.00
2023-12-21T17:10:27.748Z,1356.00
2023-12-21T17:11:27.696Z,1355.00
2023-12-21T17:12:27.650Z,1356.00
2023-12-21T17:13:27.702Z,1359.00
2023-12-21T17:14:27.625Z,1364.00
2023-12-21T17:15:27.681Z,1369.00
2023-12-21T17:16:27.699Z,1373.00
2023-12-21T17:17:27.725Z,1375.00
2023-12-21T17:18:27.787Z,1380.00
2023-12-21T17:19:27.762Z,1389.00
2023-12-21T17:20:27.657Z,1400.00
2023-12-21T17:21:27.662Z,1411.00
2023-12-21T17:22:27.671Z,1415.00
2023-12-21T17:23:28.133Z,1419.00
2023-12-21T17:24:27.739Z,1431.00
2023-12-21T17:25:27.697Z,1438.00
2023-12-21T17:26:27.679Z,1439.00
2023-12-21T17:27:27.729Z,1445.00
2023-12-21T17:28:27.737Z,1450.00
2023-12-21T17:29:27.693Z,1455.00
2023-12-21T17:30:27.717Z,1467.00
2023-12-21T17:31:27.720Z,1528.00
2023-12-21T17:32:27.730Z,1543.00
2023-12-21T17:33:27.717Z,1539.00
2023-12-21T17:34:28.653Z,1525.00
2023-12-21T17:35:27.769Z,1557.00
2023-12-21T17:36:27.723Z,1545.00
2023-12-21T17:37:27.711Z,1527.00
2023-12-21T17:38:27.738Z,1524.00
2023-12-21T17:39:27.725Z,1520.00
2023-12-21T17:40:27.803Z,1525.00
2023-12-21T17:41:27.680Z,1522.00
2023-12-21T17:42:27.681Z,1515.00
2023-12-21T17:43:27.740Z,1509.00
2023-12-21T17:44:27.710Z,1502.00
2023-12-21T17:45:27.712Z,1496.00
2023-12-21T17:46:27.744Z,1487.00
2023-12-21T17:47:27.754Z,1483.00
2023-12-21T17:48:28.187Z,1476.00
2023-12-21T17:49:27.898Z,1471.00
2023-12-21T17:50:27.721Z,1466.00
2023-12-21T17:51:27.749Z,1462.00
2023-12-21T17:52:27.761Z,1458.00
2023-12-21T17:53:27.856Z,1456.00
2023-12-21T17:54:28.638Z,1456.00
2023-12-21T17:55:27.950Z,1458.00
2023-12-21T17:56:27.927Z,1455.00
2023-12-21T17:57:28.071Z,1453.00
2023-12-21T17:58:28.283Z,1452.00
2023-12-21T17:59:27.969Z,1455.00
2023-12-21T18:00:28.007Z,1456.00
2023-12-21T18:01:28.090Z,1452.00
2023-12-21T18:02:28.013Z,1451.00
2023-12-21T18:03:28.125Z,1451.00
2023-12-21T18:04:28.075Z,1450.00
2023-12-21T18:05:28.145Z,1448.00
2023-12-21T18:06:28.045Z,1446.00
2023-12-21T18:07:28.075Z,1441.00
2023-12-21T18:08:28.193Z,1437.00
2023-12-21T18:09:28.097Z,1435.00
2023-12-21T18:10:28.181Z,1434.00
2023-12-21T18:11:28.202Z,1437.00
2023-12-21T18:12:28.140Z,1437.00
2023-12-21T18:13:28.231Z,1433.00
2023-12-21T18:14:28.203Z,1430.00
2023-12-21T18:15:28.235Z,1429.00
2023-12-21T18:16:28.395Z,1424.00
2023-12-21T18:17:28.448Z,1420.00
2023-12-21T18:18:28.536Z,1416.00
2023-12-21T18:19:28.472Z,1412.00
2023-12-21T18:20:28.428Z,1412.00
2023-12-21T18:21:28.436Z,1411.00
2023-12-21T18:22:28.486Z,1408.00
2023-12-21T18:23:28.484Z,1407.00
2023-12-21T18:24:28.497Z,1408.00
2023-12-21T18:25:28.515Z,1409.00
2023-12-21T18:26:28.558Z,1409.00
2023-12-21T18:27:28.565Z,1407.00
2023-12-21T18:28:29.189Z,1407.00
2023-12-21T18:29:28.569Z,1402.00
2023-12-21T18:30:28.582Z,1400.00
2023-12-21T18:31:28.599Z,1399.00
2023-12-21T18:32:28.613Z,1397.00
2023-12-21T18:33:28.681Z,1396.00
2023-12-21T18:34:28.708Z,1394.00
2023-12-21T18:35:28.661Z,1390.00
2023-12-21T18:36:28.674Z,1387.00
2023-12-21T18:37:28.714Z,1387.00
2023-12-21T18:38:28.743Z,1384.00
2023-12-21T18:39:28.749Z,1381.00
2023-12-21T18:40:28.780Z,1378.00
2023-12-21T18:41:28.778Z,1375.00
2023-12-21T18:42:28.801Z,1375.00
2023-12-21T18:43:28.802Z,1375.00
2023-12-21T18:44:28.842Z,1372.00
2023-12-21T18:45:28.793Z,1371.00
2023-12-21T18:46:28.849Z,1369.00
2023-12-21T18:47:28.874Z,1365.00
2023-12-21T18:48:28.902Z,1363.00
2023-12-21T18:49:28.900Z,1360.00
2023-12-21T18:50:28.930Z,1360.00
2023-12-21T18:51:28.946Z,1361.00
2023-12-21T18:52:28.964Z,1359.00
2023-12-21T18:53:31.577Z,1358.00
2023-12-21T18:54:28.972Z,1354.00
2023-12-21T18:55:28.969Z,1349.00
2023-12-21T18:56:29.033Z,1348.00
2023-12-21T18:57:28.983Z,1348.00
2023-12-21T18:58:29.002Z,1346.00
2023-12-21T18:59:29.012Z,1347.00
2023-12-21T19:00:28.942Z,1344.00
2023-12-21T19:01:29.033Z,1339.00
2023-12-21T19:02:28.958Z,1338.00
2023-12-21T19:03:29.171Z,1338.00
2023-12-21T19:04:29.108Z,1334.00
2023-12-21T19:05:29.093Z,1332.00
2023-12-21T19:06:29.088Z,1330.00
2023-12-21T19:07:29.000Z,1326.00
2023-12-21T19:08:28.990Z,1320.00
2023-12-21T19:09:28.969Z,1319.00
2023-12-21T19:10:29.013Z,1317.00
2023-12-21T19:11:28.973Z,1316.00
2023-12-21T19:12:28.942Z,1315.00
2023-12-21T19:13:29.000Z,1312.00
2023-12-21T19:14:29.006Z,1313.00
2023-12-21T19:15:29.017Z,1312.00
2023-12-21T19:16:28.968Z,1312.00
2023-12-21T19:17:28.994Z,1310.00
2023-12-21T19:18:29.022Z,1311.00
2023-12-21T19:19:29.130Z,1313.00
2023-12-21T19:20:28.976Z,1310.00
2023-12-21T19:21:28.994Z,1309.00
2023-12-21T19:22:29.106Z,1307.00
2023-12-21T19:23:29.002Z,1308.00
2023-12-21T19:24:28.958Z,1308.00
2023-12-21T19:25:28.965Z,1307.00
2023-12-21T19:26:28.962Z,1308.00
2023-12-21T19:27:28.985Z,1306.00
2023-12-21T19:28:29.150Z,1303.00
2023-12-21T19:29:28.998Z,1299.00
2023-12-21T19:30:29.010Z,1297.00
2023-12-21T19:31:29.056Z,1296.00
2023-12-21T19:32:29.110Z,1294.00
2023-12-21T19:33:29.095Z,1292.00
2023-12-21T19:34:29.027Z,1292.00
2023-12-21T19:35:28.983Z,1289.00
2023-12-21T19:36:29.061Z,1285.00
2023-12-21T19:37:29.716Z,1285.00
2023-12-21T19:38:29.071Z,1285.00
2023-12-21T19:39:29.005Z,1284.00
2023-12-21T19:40:29.026Z,1284.00
2023-12-21T19:41:28.993Z,1280.00
2023-12-21T19:42:29.001Z,1279.00
2023-12-21T19:43:29.290Z,1276.00
2023-12-21T19:44:29.011Z,1273.00
2023-12-21T19:45:29.028Z,1277.00
2023-12-21T19:46:29.067Z,1277.00
2023-12-21T19:47:29.067Z,1275.00
2023-12-21T19:48:29.123Z,1273.00
2023-12-21T19:49:29.127Z,1271.00
2023-12-21T19:50:29.001Z,1269.00
2023-12-21T19:51:29.000Z,1266.00
2023-12-21T19:52:29.028Z,1266.00
2023-12-21T19:53:29.017Z,1265.00
2023-12-21T19:54:29.007Z,1267.00
2023-12-21T19:55:29.050Z,1265.00
2023-12-21T19:56:29.036Z,1262.00
2023-12-21T19:57:28.992Z,1264.00
2023-12-21T19:58:29.071Z,1264.00
2023-12-21T19:59:29.011Z,1263.00
2023-12-21T20:00:29.039Z,1263.00
2023-12-21T20:01:29.095Z,1265.00
2023-12-21T20:02:29.031Z,1264.00
2023-12-21T20:03:29.049Z,1264.00
2023-12-21T20:04:29.133Z,1262.00
2023-12-21T20:05:29.197Z,1256.00
2023-12-21T20:06:29.179Z,1257.00
2023-12-21T20:07:29.121Z,1259.00
2023-12-21T20:08:29.083Z,1260.00
2023-12-21T20:09:29.048Z,1257.00
2023-12-21T20:10:29.098Z,1256.00
2023-12-21T20:11:29.158Z,1259.00
2023-12-21T20:12:29.042Z,1258.00
2023-12-21T20:13:29.077Z,1257.00
2023-12-21T20:14:29.053Z,1255.00
2023-12-21T20:15:29.068Z,1251.00
2023-12-21T20:16:29.110Z,1250.00
2023-12-21T20:17:29.141Z,1248.00
2023-12-21T20:18:29.717Z,1247.00
2023-12-21T20:19:29.141Z,1245.00
2023-12-21T20:20:29.064Z,1244.00
2023-12-21T20:21:29.060Z,1243.00
2023-12-21T20:22:29.093Z,1245.00
2023-12-21T20:23:29.224Z,1245.00
2023-12-21T20:24:29.083Z,1244.00
2023-12-21T20:25:29.078Z,1240.00
2023-12-21T20:26:29.063Z,1238.00
2023-12-21T20:27:29.045Z,1239.00
2023-12-21T20:28:29.093Z,1241.00
2023-12-21T20:29:29.143Z,1242.00
2023-12-21T20:30:29.069Z,1241.00
2023-12-21T20:31:29.106Z,1241.00
2023-12-21T20:32:29.109Z,1241.00
2023-12-21T20:33:29.191Z,1244.00
2023-12-21T20:34:29.134Z,1240.00
2023-12-21T20:35:29.062Z,1238.00
2023-12-21T20:36:29.054Z,1234.00
2023-12-21T20:37:29.086Z,1233.00
2023-12-21T20:38:29.185Z,1229.00
2023-12-21T20:39:29.089Z,1229.00
2023-12-21T20:40:29.140Z,1227.00
2023-12-21T20:41:29.120Z,1223.00
2023-12-21T20:42:29.119Z,1221.00
2023-12-21T20:43:29.095Z,1222.00
2023-12-21T20:44:29.069Z,1220.00
2023-12-21T20:45:29.142Z,1217.00
2023-12-21T20:46:29.167Z,1214.00
2023-12-21T20:47:29.139Z,1209.00
2023-12-21T20:48:29.192Z,1209.00
2023-12-21T20:49:29.328Z,1207.00
2023-12-21T20:50:29.596Z,1203.00
2023-12-21T20:51:29.271Z,1205.00
2023-12-21T20:52:29.391Z,1203.00
2023-12-21T20:53:29.694Z,1200.00